createdAt,value
2023-05-02T00:00:16.928Z,8.02
2023-05-02T00:02:43.920Z,6.00
2023-05-02T00:05:10.991Z,6.72
2023-05-02T00:07:37.649Z,6.40
2023-05-02T00:10:05.992Z,6.03
2023-05-02T00:12:33.011Z,5.03
2023-05-02T00:14:59.645Z,6.18
2023-05-02T00:17:26.502Z,4.68
2023-05-02T00:19:53.218Z,8.93
2023-05-02T00:22:20.008Z,4.32
2023-05-02T00:24:46.604Z,5.22
2023-05-02T00:27:14.320Z,4.57
2023-05-02T00:29:41.432Z,5.38
2023-05-02T00:32:08.038Z,5.20
2023-05-02T00:34:34.754Z,4.45
2023-05-02T00:37:01.298Z,3.95
2023-05-02T00:39:27.877Z,4.65
2023-05-02T00:41:58.605Z,5.78
2023-05-02T00:44:25.340Z,5.57
2023-05-02T00:46:53.230Z,5.43
2023-05-02T00:49:20.107Z,3.78
2023-05-02T00:51:46.965Z,4.88
2023-05-02T00:54:14.026Z,4.60
2023-05-02T00:56:41.067Z,4.05
2023-05-02T00:59:09.086Z,6.75
2023-05-02T01:01:44.733Z,4.28
2023-05-02T01:04:17.237Z,4.78
2023-05-02T01:07:15.177Z,3.97
2023-05-02T01:09:54.170Z,3.67
2023-05-02T01:12:29.006Z,5.05
2023-05-02T01:14:57.506Z,4.85
2023-05-02T01:17:28.738Z,3.83
2023-05-02T01:19:58.722Z,3.80
2023-05-02T01:22:29.561Z,3.85
2023-05-02T01:25:26.578Z,5.03
2023-05-02T01:28:03.998Z,3.08
2023-05-02T01:30:32.446Z,3.55
2023-05-02T01:33:00.516Z,4.57
2023-05-02T01:35:27.877Z,3.53
2023-05-02T01:37:56.120Z,3.22
2023-05-02T01:40:23.353Z,2.85
2023-05-02T01:42:51.227Z,4.20
2023-05-02T01:45:18.917Z,3.33
2023-05-02T01:47:46.386Z,3.22
2023-05-02T01:50:16.860Z,3.85
2023-05-02T01:52:44.505Z,5.18
2023-05-02T01:55:14.299Z,3.78
2023-05-02T01:57:43.154Z,4.43
2023-05-02T02:00:10.961Z,3.22
2023-05-02T02:02:41.858Z,4.30
2023-05-02T02:05:09.570Z,5.00
2023-05-02T02:07:36.674Z,4.00
2023-05-02T02:10:03.724Z,4.20
2023-05-02T02:12:43.319Z,3.38
2023-05-02T02:15:17.246Z,3.67
2023-05-02T02:17:47.169Z,3.53
2023-05-02T02:20:15.418Z,4.07
2023-05-02T02:22:43.976Z,3.53
2023-05-02T02:25:14.906Z,4.38
2023-05-02T02:27:42.451Z,5.00
2023-05-02T02:30:10.030Z,3.17
2023-05-02T02:32:37.911Z,3.65
2023-05-02T02:35:05.630Z,3.40
2023-05-02T02:37:39.595Z,3.08
2023-05-02T02:40:17.680Z,2.30
2023-05-02T02:42:59.511Z,2.63
2023-05-02T02:45:49.972Z,3.45
2023-05-02T02:48:28.062Z,3.40
2023-05-02T02:51:09.155Z,2.72
2023-05-02T02:54:15.476Z,3.70
2023-05-02T02:56:58.676Z,3.85
2023-05-02T02:59:47.443Z,3.08
2023-05-02T03:02:18.033Z,3.42
2023-05-02T03:04:46.145Z,3.03
2023-05-02T03:07:12.999Z,2.78
2023-05-02T03:09:46.450Z,2.47
2023-05-02T03:12:18.197Z,2.67
2023-05-02T03:14:45.518Z,3.10
2023-05-02T03:17:12.208Z,2.97
2023-05-02T03:19:38.853Z,3.42
2023-05-02T03:22:06.267Z,4.07
2023-05-02T03:24:35.365Z,3.72
2023-05-02T03:27:03.323Z,2.78
2023-05-02T03:29:35.223Z,2.42
2023-05-02T03:32:02.002Z,4.05
2023-05-02T03:34:28.944Z,2.80
2023-05-02T03:36:56.301Z,2.28
2023-05-02T03:39:23.432Z,2.38
2023-05-02T03:41:50.823Z,2.55
2023-05-02T03:44:20.164Z,2.42
2023-05-02T03:46:47.343Z,3.40
2023-05-02T03:49:13.993Z,2.38
2023-05-02T03:51:44.457Z,3.58
2023-05-02T03:54:12.096Z,2.53
2023-05-02T03:56:42.804Z,2.20
2023-05-02T03:59:25.395Z,2.72
2023-05-02T04:01:52.421Z,2.20
2023-05-02T04:04:24.397Z,2.05
2023-05-02T04:06:53.583Z,2.55
2023-05-02T04:09:25.313Z,2.45
2023-05-02T04:11:59.914Z,2.80
2023-05-02T04:14:26.581Z,1.80
2023-05-02T04:16:55.120Z,1.90
2023-05-02T04:19:31.298Z,2.13
2023-05-02T04:21:58.291Z,2.38
2023-05-02T04:24:24.948Z,1.90
2023-05-02T04:26:51.656Z,1.88
2023-05-02T04:29:18.290Z,2.38
2023-05-02T04:31:46.059Z,2.40
2023-05-02T04:34:14.607Z,2.78
2023-05-02T04:36:47.740Z,2.47
2023-05-02T04:39:20.045Z,2.25
2023-05-02T04:41:56.652Z,3.80
2023-05-02T04:44:26.031Z,2.67
2023-05-02T04:46:54.037Z,3.15
2023-05-02T04:49:20.771Z,2.92
2023-05-02T04:51:47.384Z,2.90
2023-05-02T04:54:14.423Z,2.00
2023-05-02T04:56:42.571Z,4.40
2023-05-02T04:59:09.952Z,2.00
2023-05-02T05:01:37.046Z,2.85
2023-05-02T05:04:04.432Z,2.63
2023-05-02T05:06:32.016Z,2.15
2023-05-02T05:09:00.093Z,4.20
2023-05-02T05:11:26.865Z,3.85
2023-05-02T05:13:53.865Z,3.45
2023-05-02T05:16:20.887Z,2.80
2023-05-02T05:18:49.320Z,5.72
2023-05-02T05:21:16.030Z,6.25
2023-05-02T05:23:46.057Z,6.50
2023-05-02T05:26:17.005Z,9.27
2023-05-02T05:28:46.825Z,9.13
2023-05-02T05:31:17.191Z,12.77
2023-05-02T05:33:47.858Z,11.70
2023-05-02T05:36:15.058Z,13.05
2023-05-02T05:38:42.070Z,11.05
2023-05-02T05:41:11.092Z,10.25
2023-05-02T05:43:41.522Z,7.97
2023-05-02T05:46:08.167Z,8.52
2023-05-02T05:48:36.954Z,10.57
2023-05-02T05:51:05.431Z,6.10
2023-05-02T05:53:32.798Z,6.55
2023-05-02T05:56:09.664Z,7.32
2023-05-02T05:58:38.043Z,6.70
2023-05-02T06:01:06.274Z,9.88
2023-05-02T06:03:33.362Z,8.48
2023-05-02T06:06:00.552Z,7.07
2023-05-02T06:08:27.201Z,5.90
2023-05-02T06:10:53.750Z,9.32
2023-05-02T06:13:20.342Z,4.75
2023-05-02T06:15:47.738Z,7.28
2023-05-02T06:18:14.807Z,8.00
2023-05-02T06:20:42.800Z,10.52
2023-05-02T06:23:09.440Z,11.75
2023-05-02T06:25:39.106Z,9.68
2023-05-02T06:28:06.149Z,9.70
2023-05-02T06:30:32.759Z,9.05
2023-05-02T06:32:59.500Z,9.60
2023-05-02T06:35:26.187Z,9.43
2023-05-02T06:37:52.760Z,8.68
2023-05-02T06:40:19.298Z,7.93
2023-05-02T06:42:45.912Z,7.75
2023-05-02T06:45:12.497Z,7.93
2023-05-02T06:47:39.124Z,10.18
2023-05-02T06:50:06.289Z,8.05
2023-05-02T06:52:32.902Z,8.40
2023-05-02T06:54:59.473Z,9.25
2023-05-02T06:57:26.113Z,8.93
2023-05-02T06:59:52.824Z,8.20
2023-05-02T07:02:19.382Z,8.00
2023-05-02T07:04:46.027Z,7.93
2023-05-02T07:07:12.649Z,8.88
2023-05-02T07:09:39.312Z,7.25
2023-05-02T07:12:07.070Z,7.20
2023-05-02T07:14:33.898Z,7.20
2023-05-02T07:17:00.548Z,6.45
2023-05-02T07:19:27.185Z,5.47
2023-05-02T07:21:53.860Z,7.32
2023-05-02T07:24:20.750Z,7.03
2023-05-02T07:26:47.488Z,6.25
2023-05-02T07:29:14.051Z,7.60
2023-05-02T07:31:40.769Z,7.82
2023-05-02T07:34:07.614Z,5.70
2023-05-02T07:36:34.242Z,5.70
2023-05-02T07:39:00.823Z,5.20
2023-05-02T07:41:27.370Z,7.70
2023-05-02T07:43:54.267Z,5.10
2023-05-02T07:46:21.640Z,6.18
2023-05-02T07:48:48.280Z,6.43
2023-05-02T07:51:14.924Z,6.60
2023-05-02T07:53:41.518Z,4.32
2023-05-02T07:56:08.801Z,7.03
2023-05-02T07:58:38.786Z,5.68
2023-05-02T08:01:05.391Z,6.93
2023-05-02T08:03:32.236Z,9.55
2023-05-02T08:05:58.978Z,3.85
2023-05-02T08:08:25.806Z,6.32
2023-05-02T08:10:52.436Z,5.57
2023-05-02T08:13:19.182Z,6.80
2023-05-02T08:15:46.125Z,6.57
2023-05-02T08:18:12.920Z,4.32
2023-05-02T08:20:39.543Z,5.60
2023-05-02T08:23:06.092Z,4.32
2023-05-02T08:25:33.339Z,4.25
2023-05-02T08:28:00.035Z,3.65
2023-05-02T08:30:26.693Z,5.28
2023-05-02T08:32:53.295Z,6.13
2023-05-02T08:35:19.935Z,5.50
2023-05-02T08:37:46.545Z,6.55
2023-05-02T08:40:14.705Z,3.67
2023-05-02T08:42:43.245Z,5.25
2023-05-02T08:45:11.794Z,4.78
2023-05-02T08:47:40.605Z,5.43
2023-05-02T08:50:09.368Z,5.70
2023-05-02T08:52:36.948Z,4.45
2023-05-02T08:55:04.995Z,5.05
2023-05-02T08:57:32.406Z,4.60
2023-05-02T08:59:59.265Z,5.15
2023-05-02T09:02:46.136Z,3.20
2023-05-02T09:05:20.455Z,3.97
2023-05-02T09:07:48.807Z,5.07
2023-05-02T09:10:15.789Z,3.58
2023-05-02T09:12:42.691Z,5.75
2023-05-02T09:15:11.634Z,3.72
2023-05-02T09:17:45.725Z,4.35
2023-05-02T09:20:13.754Z,6.28
2023-05-02T09:22:48.756Z,4.68
2023-05-02T09:25:16.225Z,4.18
2023-05-02T09:27:54.041Z,4.22
2023-05-02T09:30:25.722Z,4.32
2023-05-02T09:32:55.618Z,3.72
2023-05-02T09:35:26.191Z,3.00
2023-05-02T09:37:54.577Z,4.10
2023-05-02T09:40:21.527Z,4.43
2023-05-02T09:42:48.167Z,4.65
2023-05-02T09:45:25.458Z,4.60
2023-05-02T09:47:52.987Z,4.25
2023-05-02T09:50:38.516Z,3.28
2023-05-02T09:53:07.161Z,3.25
2023-05-02T09:55:33.785Z,3.47
2023-05-02T09:58:01.252Z,4.28
2023-05-02T10:00:44.533Z,4.38
2023-05-02T10:03:16.301Z,4.45
2023-05-02T10:05:44.733Z,4.22
2023-05-02T10:08:12.070Z,4.05
2023-05-02T10:10:45.166Z,2.72
2023-05-02T10:13:13.431Z,3.05
2023-05-02T10:15:44.471Z,3.22
2023-05-02T10:18:16.672Z,3.50
2023-05-02T10:20:57.071Z,4.18
2023-05-02T10:23:26.923Z,2.97
2023-05-02T10:25:54.432Z,4.07
2023-05-02T10:28:21.094Z,4.18
2023-05-02T10:30:48.034Z,3.03
2023-05-02T10:33:15.022Z,2.78
2023-05-02T10:35:46.915Z,2.63
2023-05-02T10:38:24.750Z,2.65
2023-05-02T10:40:59.421Z,3.00
2023-05-02T10:43:32.658Z,3.20
2023-05-02T10:45:59.246Z,3.45
2023-05-02T10:48:26.846Z,3.42
2023-05-02T10:51:03.850Z,2.88
2023-05-02T10:53:36.690Z,3.75
2023-05-02T10:56:13.046Z,2.50
2023-05-02T10:58:43.423Z,3.47
2023-05-02T11:01:25.337Z,3.05
2023-05-02T11:04:01.808Z,2.75
2023-05-02T11:06:30.944Z,3.28
2023-05-02T11:09:15.624Z,2.67
2023-05-02T11:11:43.826Z,3.50
2023-05-02T11:14:11.659Z,3.10
2023-05-02T11:17:06.417Z,3.03
2023-05-02T11:19:39.033Z,2.70
2023-05-02T11:22:17.707Z,3.42
2023-05-02T11:24:45.620Z,2.80
2023-05-02T11:27:30.945Z,4.10
2023-05-02T11:30:10.861Z,2.65
2023-05-02T11:32:50.190Z,2.75
2023-05-02T11:35:23.450Z,3.17
2023-05-02T11:38:14.454Z,2.90
2023-05-02T11:40:41.375Z,2.75
2023-05-02T11:43:15.720Z,3.40
2023-05-02T11:45:42.909Z,2.60
2023-05-02T11:48:11.809Z,2.90
2023-05-02T11:50:52.551Z,3.45
2023-05-02T11:53:24.253Z,3.13
2023-05-02T11:55:55.460Z,2.92
2023-05-02T11:58:23.974Z,2.65
2023-05-02T12:00:52.374Z,2.67
2023-05-02T12:03:20.636Z,2.67
2023-05-02T12:05:47.386Z,2.60
2023-05-02T12:08:21.254Z,3.17
2023-05-02T12:10:47.969Z,2.87
2023-05-02T12:13:14.788Z,2.80
2023-05-02T12:15:42.173Z,2.67
2023-05-02T12:18:09.193Z,4.30
2023-05-02T12:20:37.104Z,2.80
2023-05-02T12:23:05.993Z,2.55
2023-05-02T12:25:36.656Z,2.85
2023-05-02T12:28:03.821Z,2.97
2023-05-02T12:30:30.913Z,2.70
2023-05-02T12:32:58.969Z,2.90
2023-05-02T12:35:25.969Z,2.67
2023-05-02T12:37:54.254Z,2.70
2023-05-02T12:40:21.004Z,2.67
2023-05-02T12:43:10.608Z,2.65
2023-05-02T12:45:37.527Z,3.00
2023-05-02T12:48:23.909Z,3.00
2023-05-02T12:50:51.205Z,3.15
2023-05-02T12:53:17.884Z,2.92
2023-05-02T12:55:44.739Z,2.70
2023-05-02T12:58:14.921Z,2.38
2023-05-02T13:00:43.640Z,2.50
2023-05-02T13:03:11.741Z,2.58
2023-05-02T13:05:38.438Z,2.60
2023-05-02T13:08:06.132Z,2.78
2023-05-02T13:10:33.244Z,2.78
2023-05-02T13:12:59.914Z,2.72
2023-05-02T13:15:26.907Z,2.80
2023-05-02T13:17:53.707Z,2.50
2023-05-02T13:20:20.389Z,2.50
2023-05-02T13:22:46.997Z,2.78
2023-05-02T13:25:13.596Z,2.50
2023-05-02T13:27:41.192Z,2.88
2023-05-02T13:30:09.601Z,2.60
2023-05-02T13:32:36.597Z,3.10
2023-05-02T13:35:03.782Z,2.70
2023-05-02T13:37:30.493Z,2.72
2023-05-02T13:39:57.119Z,2.50
2023-05-02T13:42:23.765Z,3.13
2023-05-02T13:44:50.500Z,2.65
2023-05-02T13:47:17.251Z,3.03
2023-05-02T13:49:43.839Z,3.22
2023-05-02T13:52:10.756Z,3.10
2023-05-02T13:54:37.562Z,2.58
2023-05-02T13:57:05.466Z,2.60
2023-05-02T13:59:32.079Z,2.65
2023-05-02T14:01:58.806Z,2.63
2023-05-02T14:04:25.581Z,2.88
2023-05-02T14:06:52.278Z,2.40
2023-05-02T14:09:19.031Z,2.60
2023-05-02T14:11:47.245Z,2.50
2023-05-02T14:14:14.152Z,2.42
2023-05-02T14:16:41.030Z,3.50
2023-05-02T14:19:07.635Z,2.50
2023-05-02T14:21:34.346Z,3.63
2023-05-02T14:24:00.886Z,3.15
2023-05-02T14:26:27.488Z,2.47
2023-05-02T14:28:54.144Z,2.38
2023-05-02T14:31:20.794Z,2.65
2023-05-02T14:33:47.433Z,2.70
2023-05-02T14:36:14.035Z,2.25
2023-05-02T14:38:40.874Z,3.08
2023-05-02T14:41:07.552Z,2.40
2023-05-02T14:43:34.129Z,2.33
2023-05-02T14:46:00.739Z,2.85
2023-05-02T14:48:27.354Z,2.60
2023-05-02T14:50:54.061Z,3.30
2023-05-02T14:53:21.313Z,2.30
2023-05-02T14:55:48.079Z,3.30
2023-05-02T14:58:20.417Z,2.30
2023-05-02T15:00:47.484Z,2.45
2023-05-02T15:03:14.344Z,2.30
2023-05-02T15:05:41.840Z,2.65
2023-05-02T15:08:08.532Z,2.55
2023-05-02T15:10:39.060Z,3.45
2023-05-02T15:13:06.781Z,2.22
2023-05-02T15:15:33.594Z,2.30
2023-05-02T15:18:00.264Z,2.10
2023-05-02T15:20:26.948Z,2.22
2023-05-02T15:22:53.588Z,2.30
2023-05-02T15:25:20.175Z,2.63
2023-05-02T15:27:46.755Z,2.63
2023-05-02T15:30:14.290Z,2.42
2023-05-02T15:32:42.061Z,3.78
2023-05-02T15:35:08.856Z,2.25
2023-05-02T15:37:35.992Z,2.13
2023-05-02T15:40:04.106Z,2.30
2023-05-02T15:42:31.121Z,2.38
2023-05-02T15:44:57.774Z,3.03
2023-05-02T15:47:25.058Z,2.15
2023-05-02T15:49:53.960Z,2.22
2023-05-02T15:52:21.060Z,2.40
2023-05-02T15:54:47.684Z,3.90
2023-05-02T15:57:14.288Z,3.60
2023-05-02T15:59:40.948Z,4.30
2023-05-02T16:02:07.649Z,2.75
2023-05-02T16:04:35.040Z,3.90
2023-05-02T16:07:02.239Z,2.53
2023-05-02T16:09:31.119Z,2.70
2023-05-02T16:11:58.106Z,2.40
2023-05-02T16:14:26.163Z,2.33
2023-05-02T16:16:52.862Z,2.28
2023-05-02T16:19:19.457Z,3.25
2023-05-02T16:21:46.528Z,2.20
2023-05-02T16:24:13.380Z,2.40
2023-05-02T16:26:40.528Z,3.15
2023-05-02T16:29:07.113Z,2.50
2023-05-02T16:31:33.729Z,3.28
2023-05-02T16:34:00.472Z,2.22
2023-05-02T16:36:29.051Z,2.28
2023-05-02T16:38:55.683Z,3.40
2023-05-02T16:41:22.356Z,3.42
2023-05-02T16:43:49.780Z,2.55
2023-05-02T16:46:16.579Z,2.15
2023-05-02T16:48:43.196Z,2.40
2023-05-02T16:51:09.833Z,6.30
2023-05-02T16:53:36.383Z,2.35
2023-05-02T16:56:02.965Z,2.60
2023-05-02T16:58:29.710Z,2.72
2023-05-02T17:00:56.566Z,5.20
2023-05-02T17:03:23.298Z,2.65
2023-05-02T17:05:49.893Z,2.38
2023-05-02T17:08:16.983Z,2.60
2023-05-02T17:10:49.388Z,2.25
2023-05-02T17:13:16.256Z,2.75
2023-05-02T17:15:43.544Z,2.67
2023-05-02T17:18:11.677Z,2.40
2023-05-02T17:20:38.582Z,2.40
2023-05-02T17:23:05.583Z,2.10
2023-05-02T17:25:32.199Z,2.33
2023-05-02T17:27:58.755Z,3.67
2023-05-02T17:30:25.708Z,5.03
2023-05-02T17:32:52.405Z,2.97
2023-05-02T17:35:19.109Z,2.28
2023-05-02T17:37:45.799Z,2.22
2023-05-02T17:40:12.620Z,2.22
2023-05-02T17:42:39.295Z,2.38
2023-05-02T17:45:07.547Z,2.38
2023-05-02T17:47:34.529Z,2.30
2023-05-02T17:50:04.748Z,2.47
2023-05-02T17:52:33.135Z,2.30
2023-05-02T17:54:59.730Z,2.55
2023-05-02T17:57:26.762Z,2.13
2023-05-02T17:59:58.439Z,2.33
2023-05-02T18:02:28.261Z,2.40
2023-05-02T18:04:55.101Z,2.78
2023-05-02T18:07:24.382Z,2.40
2023-05-02T18:09:51.781Z,2.97
2023-05-02T18:12:18.961Z,2.47
2023-05-02T18:14:45.740Z,2.83
2023-05-02T18:17:12.693Z,3.58
2023-05-02T18:19:39.718Z,2.35
2023-05-02T18:22:07.234Z,2.88
2023-05-02T18:24:33.871Z,3.28
2023-05-02T18:27:00.475Z,3.30
2023-05-02T18:29:27.101Z,2.60
2023-05-02T18:31:54.253Z,5.25
2023-05-02T18:34:20.936Z,3.00
2023-05-02T18:36:48.023Z,3.03
2023-05-02T18:39:14.607Z,3.28
2023-05-02T18:41:41.169Z,4.15
2023-05-02T18:44:10.089Z,4.57
2023-05-02T18:46:37.342Z,3.85
2023-05-02T18:49:04.321Z,3.53
2023-05-02T18:51:31.022Z,4.15
2023-05-02T18:53:57.577Z,4.53
2023-05-02T18:56:25.405Z,4.53
2023-05-02T18:58:56.320Z,4.78
2023-05-02T19:01:24.044Z,6.60
2023-05-02T19:03:52.869Z,6.47
2023-05-02T19:06:20.294Z,7.03
2023-05-02T19:08:48.042Z,3.95
2023-05-02T19:11:15.064Z,3.33
2023-05-02T19:13:41.675Z,5.40
2023-05-02T19:16:12.474Z,4.30
2023-05-02T19:18:40.159Z,6.32
2023-05-02T19:21:12.650Z,4.85
2023-05-02T19:23:44.810Z,7.05
2023-05-02T19:26:15.401Z,7.00
2023-05-02T19:28:42.251Z,6.93
2023-05-02T19:31:13.698Z,7.03
2023-05-02T19:33:40.955Z,7.55
2023-05-02T19:36:07.756Z,7.22
2023-05-02T19:38:34.969Z,6.53
2023-05-02T19:41:02.422Z,6.38
2023-05-02T19:43:29.144Z,7.20
2023-05-02T19:45:56.835Z,8.32
2023-05-02T19:48:23.602Z,7.68
2023-05-02T19:50:50.265Z,7.35
2023-05-02T19:53:16.826Z,7.22
2023-05-02T19:55:43.400Z,7.07
2023-05-02T19:58:10.267Z,6.20
2023-05-02T20:00:37.474Z,6.57
2023-05-02T20:03:05.210Z,6.10
2023-05-02T20:05:32.321Z,6.57
2023-05-02T20:07:59.555Z,7.53
2023-05-02T20:10:26.331Z,5.55
2023-05-02T20:12:52.967Z,5.30
2023-05-02T20:15:21.014Z,6.32
2023-05-02T20:17:47.887Z,5.68
2023-05-02T20:20:14.542Z,5.60
2023-05-02T20:22:41.360Z,6.70
2023-05-02T20:25:11.629Z,6.22
2023-05-02T20:27:38.292Z,6.63
2023-05-02T20:30:05.964Z,6.88
2023-05-02T20:32:32.521Z,6.93
2023-05-02T20:34:59.061Z,7.47
2023-05-02T20:37:25.817Z,5.97
2023-05-02T20:39:52.393Z,6.88
2023-05-02T20:42:23.388Z,6.60
2023-05-02T20:45:09.169Z,5.90
2023-05-02T20:47:35.869Z,6.05
2023-05-02T20:50:02.882Z,6.03
2023-05-02T20:52:29.676Z,5.05
2023-05-02T20:54:56.413Z,7.50
2023-05-02T20:57:24.304Z,4.88
2023-05-02T20:59:51.078Z,6.88
2023-05-02T21:02:17.727Z,6.22
2023-05-02T21:04:44.357Z,6.60
2023-05-02T21:07:11.450Z,5.75
2023-05-02T21:09:38.083Z,5.50
2023-05-02T21:12:06.228Z,6.93
2023-05-02T21:14:33.634Z,4.90
2023-05-02T21:17:00.203Z,7.47
2023-05-02T21:19:26.833Z,5.45
2023-05-02T21:21:53.499Z,5.22
2023-05-02T21:24:20.099Z,5.82
2023-05-02T21:26:46.755Z,7.57
2023-05-02T21:29:14.982Z,5.97
2023-05-02T21:31:41.683Z,5.43
2023-05-02T21:34:08.321Z,5.07
2023-05-02T21:36:34.900Z,5.05
2023-05-02T21:39:01.453Z,6.43
2023-05-02T21:41:28.136Z,4.60
2023-05-02T21:43:54.806Z,3.88
2023-05-02T21:46:21.468Z,4.45
2023-05-02T21:48:48.395Z,4.57
2023-05-02T21:51:15.167Z,4.70
2023-05-02T21:53:41.806Z,4.53
2023-05-02T21:56:09.594Z,5.72
2023-05-02T21:58:36.321Z,5.70
2023-05-02T22:01:03.223Z,3.92
2023-05-02T22:03:33.623Z,4.30
2023-05-02T22:06:05.741Z,4.15
2023-05-02T22:08:32.733Z,6.05
2023-05-02T22:10:59.387Z,4.50
2023-05-02T22:13:25.954Z,6.68
2023-05-02T22:15:52.508Z,4.47
2023-05-02T22:18:19.199Z,4.75
2023-05-02T22:20:45.936Z,4.68
2023-05-02T22:23:12.714Z,3.95
2023-05-02T22:25:41.598Z,4.68
2023-05-02T22:28:11.359Z,4.20
2023-05-02T22:30:38.701Z,3.60
2023-05-02T22:33:06.479Z,3.45
2023-05-02T22:35:33.366Z,5.13
2023-05-02T22:38:01.536Z,4.43
2023-05-02T22:40:29.781Z,3.58
2023-05-02T22:42:56.344Z,3.70
2023-05-02T22:45:23.033Z,3.92
2023-05-02T22:47:49.821Z,3.40
2023-05-02T22:50:16.426Z,3.20
2023-05-02T22:52:43.830Z,4.03
2023-05-02T22:55:10.560Z,3.45
2023-05-02T22:57:37.301Z,3.47
2023-05-02T23:00:09.243Z,3.83
2023-05-02T23:02:38.184Z,4.72
2023-05-02T23:05:05.497Z,5.22
2023-05-02T23:07:32.248Z,3.20
2023-05-02T23:09:58.789Z,3.80
2023-05-02T23:12:25.330Z,3.83
2023-05-02T23:14:51.995Z,2.78
2023-05-02T23:17:18.548Z,3.20
2023-05-02T23:19:45.113Z,3.20
2023-05-02T23:22:11.794Z,3.17
2023-05-02T23:24:38.452Z,2.65
2023-05-02T23:27:07.542Z,3.20
2023-05-02T23:29:34.192Z,3.17
2023-05-02T23:32:01.225Z,2.60
2023-05-02T23:34:28.021Z,3.20
2023-05-02T23:36:54.591Z,2.95
2023-05-02T23:39:21.339Z,3.10
2023-05-02T23:41:47.964Z,3.45
2023-05-02T23:44:14.523Z,3.22
2023-05-02T23:46:41.077Z,3.45
2023-05-02T23:49:07.788Z,3.15
2023-05-02T23:51:34.729Z,3.40
2023-05-02T23:54:01.565Z,4.10
2023-05-02T23:56:28.204Z,3.40
2023-05-02T23:58:55.247Z,3.30
